sensor_id;sensor_type;location;lat;lon;timestamp;P1;durP1;ratioP1;P2;durP2;ratioP2
31764;SDS011;18338;53.240;8.798;2023-02-28T00:01:18;6.87;;;4.17;;
31764;SDS011;18338;53.240;8.798;2023-02-28T00:03:44;6.93;;;3.63;;
31764;SDS011;18338;53.240;8.798;2023-02-28T00:06:11;8.20;;;4.47;;
31764;SDS011;18338;53.240;8.798;2023-02-28T00:08:38;6.43;;;4.50;;
31764;SDS011;18338;53.240;8.798;2023-02-28T00:11:07;8.43;;;4.93;;
31764;SDS011;18338;53.240;8.798;2023-02-28T00:13:36;7.47;;;4.63;;
31764;SDS011;18338;53.240;8.798;2023-02-28T00:16:06;8.67;;;5.00;;
31764;SDS011;18338;53.240;8.798;2023-02-28T00:18:35;8.03;;;4.60;;
31764;SDS011;18338;53.240;8.798;2023-02-28T00:21:03;9.73;;;5.03;;
31764;SDS011;18338;53.240;8.798;2023-02-28T00:23:31;9.27;;;4.60;;
31764;SDS011;18338;53.240;8.798;2023-02-28T00:25:58;8.53;;;4.90;;
31764;SDS011;18338;53.240;8.798;2023-02-28T00:28:25;6.93;;;4.57;;
31764;SDS011;18338;53.240;8.798;2023-02-28T00:30:52;6.13;;;4.70;;
31764;SDS011;18338;53.240;8.798;2023-02-28T00:33:19;7.50;;;4.73;;
31764;SDS011;18338;53.240;8.798;2023-02-28T00:35:46;8.57;;;4.60;;
31764;SDS011;18338;53.240;8.798;2023-02-28T00:38:13;8.63;;;4.83;;
31764;SDS011;18338;53.240;8.798;2023-02-28T00:40:40;7.27;;;4.27;;
31764;SDS011;18338;53.240;8.798;2023-02-28T00:43:07;7.50;;;4.67;;
31764;SDS011;18338;53.240;8.798;2023-02-28T00:45:34;7.80;;;4.20;;
31764;SDS011;18338;53.240;8.798;2023-02-28T00:48:02;5.33;;;4.07;;
31764;SDS011;18338;53.240;8.798;2023-02-28T00:50:29;6.30;;;4.30;;
31764;SDS011;18338;53.240;8.798;2023-02-28T00:52:56;8.23;;;4.30;;
31764;SDS011;18338;53.240;8.798;2023-02-28T00:55:23;7.97;;;4.47;;
31764;SDS011;18338;53.240;8.798;2023-02-28T00:57:50;6.80;;;4.10;;
31764;SDS011;18338;53.240;8.798;2023-02-28T01:00:17;6.53;;;3.87;;
31764;SDS011;18338;53.240;8.798;2023-02-28T01:02:44;7.67;;;4.10;;
31764;SDS011;18338;53.240;8.798;2023-02-28T01:05:11;6.93;;;4.23;;
31764;SDS011;18338;53.240;8.798;2023-02-28T01:07:37;8.60;;;4.40;;
31764;SDS011;18338;53.240;8.798;2023-02-28T01:10:04;5.53;;;4.10;;
31764;SDS011;18338;53.240;8.798;2023-02-28T01:12:32;6.80;;;4.07;;
31764;SDS011;18338;53.240;8.798;2023-02-28T01:14:59;7.67;;;4.37;;
31764;SDS011;18338;53.240;8.798;2023-02-28T01:17:26;7.13;;;4.23;;
31764;SDS011;18338;53.240;8.798;2023-02-28T01:19:54;7.07;;;4.17;;
31764;SDS011;18338;53.240;8.798;2023-02-28T01:22:22;6.57;;;4.13;;
31764;SDS011;18338;53.240;8.798;2023-02-28T01:24:49;7.03;;;4.00;;
31764;SDS011;18338;53.240;8.798;2023-02-28T01:27:15;7.07;;;4.70;;
31764;SDS011;18338;53.240;8.798;2023-02-28T01:29:42;8.57;;;3.90;;
31764;SDS011;18338;53.240;8.798;2023-02-28T01:32:10;6.07;;;4.17;;
31764;SDS011;18338;53.240;8.798;2023-02-28T01:34:37;10.27;;;4.73;;
31764;SDS011;18338;53.240;8.798;2023-02-28T01:37:04;6.07;;;4.27;;
31764;SDS011;18338;53.240;8.798;2023-02-28T01:39:31;6.17;;;4.30;;
31764;SDS011;18338;53.240;8.798;2023-02-28T01:41:57;8.90;;;4.07;;
31764;SDS011;18338;53.240;8.798;2023-02-28T01:47:35;6.13;;;4.47;;
31764;SDS011;18338;53.240;8.798;2023-02-28T01:50:07;5.73;;;4.30;;
31764;SDS011;18338;53.240;8.798;2023-02-28T01:52:39;8.33;;;4.50;;
31764;SDS011;18338;53.240;8.798;2023-02-28T01:55:07;8.67;;;4.60;;
31764;SDS011;18338;53.240;8.798;2023-02-28T01:57:38;7.90;;;4.63;;
31764;SDS011;18338;53.240;8.798;2023-02-28T02:00:15;6.43;;;4.77;;
31764;SDS011;18338;53.240;8.798;2023-02-28T02:02:45;7.50;;;5.20;;
31764;SDS011;18338;53.240;8.798;2023-02-28T02:05:19;7.10;;;4.40;;
31764;SDS011;18338;53.240;8.798;2023-02-28T02:07:55;7.37;;;4.27;;
31764;SDS011;18338;53.240;8.798;2023-02-28T02:18:32;8.07;;;5.00;;
31764;SDS011;18338;53.240;8.798;2023-02-28T02:21:15;8.60;;;4.87;;
31764;SDS011;18338;53.240;8.798;2023-02-28T02:24:01;7.10;;;5.00;;
31764;SDS011;18338;53.240;8.798;2023-02-28T02:26:44;8.07;;;5.43;;
31764;SDS011;18338;53.240;8.798;2023-02-28T02:32:42;6.60;;;5.20;;
31764;SDS011;18338;53.240;8.798;2023-02-28T02:40:57;8.60;;;5.37;;
31764;SDS011;18338;53.240;8.798;2023-02-28T02:43:30;8.57;;;5.73;;
31764;SDS011;18338;53.240;8.798;2023-02-28T02:46:04;9.43;;;5.27;;
31764;SDS011;18338;53.240;8.798;2023-02-28T02:48:37;7.97;;;5.03;;
31764;SDS011;18338;53.240;8.798;2023-02-28T02:51:07;9.60;;;5.40;;
31764;SDS011;18338;53.240;8.798;2023-02-28T02:53:41;8.60;;;5.60;;
31764;SDS011;18338;53.240;8.798;2023-02-28T02:56:21;10.23;;;5.70;;
31764;SDS011;18338;53.240;8.798;2023-02-28T02:58:51;10.37;;;6.00;;
31764;SDS011;18338;53.240;8.798;2023-02-28T03:01:25;9.37;;;5.30;;
31764;SDS011;18338;53.240;8.798;2023-02-28T03:03:59;9.80;;;5.67;;
31764;SDS011;18338;53.240;8.798;2023-02-28T03:06:29;7.77;;;5.40;;
31764;SDS011;18338;53.240;8.798;2023-02-28T03:08:56;7.70;;;5.40;;
31764;SDS011;18338;53.240;8.798;2023-02-28T03:11:23;7.67;;;5.83;;
31764;SDS011;18338;53.240;8.798;2023-02-28T03:19:31;7.50;;;5.63;;
31764;SDS011;18338;53.240;8.798;2023-02-28T03:22:21;8.73;;;5.73;;
31764;SDS011;18338;53.240;8.798;2023-02-28T03:25:26;7.07;;;5.40;;
31764;SDS011;18338;53.240;8.798;2023-02-28T03:30:49;9.10;;;6.03;;
31764;SDS011;18338;53.240;8.798;2023-02-28T03:33:28;8.50;;;5.93;;
31764;SDS011;18338;53.240;8.798;2023-02-28T03:36:04;8.13;;;5.50;;
31764;SDS011;18338;53.240;8.798;2023-02-28T03:38:54;8.50;;;5.43;;
31764;SDS011;18338;53.240;8.798;2023-02-28T03:41:48;9.57;;;5.80;;
31764;SDS011;18338;53.240;8.798;2023-02-28T03:44:25;10.33;;;6.47;;
31764;SDS011;18338;53.240;8.798;2023-02-28T03:47:05;8.73;;;5.70;;
31764;SDS011;18338;53.240;8.798;2023-02-28T03:49:36;9.43;;;5.90;;
31764;SDS011;18338;53.240;8.798;2023-02-28T03:52:12;11.73;;;6.03;;
31764;SDS011;18338;53.240;8.798;2023-02-28T03:54:41;10.67;;;5.83;;
31764;SDS011;18338;53.240;8.798;2023-02-28T03:57:20;9.73;;;5.50;;
31764;SDS011;18338;53.240;8.798;2023-02-28T03:59:57;9.80;;;5.40;;
31764;SDS011;18338;53.240;8.798;2023-02-28T04:02:30;7.37;;;5.57;;
31764;SDS011;18338;53.240;8.798;2023-02-28T04:04:58;6.87;;;5.93;;
31764;SDS011;18338;53.240;8.798;2023-02-28T04:07:29;7.53;;;5.33;;
31764;SDS011;18338;53.240;8.798;2023-02-28T04:09:57;7.10;;;5.60;;
31764;SDS011;18338;53.240;8.798;2023-02-28T04:12:24;7.87;;;5.87;;
31764;SDS011;18338;53.240;8.798;2023-02-28T04:14:51;8.83;;;6.10;;
31764;SDS011;18338;53.240;8.798;2023-02-28T04:17:18;7.60;;;5.30;;
31764;SDS011;18338;53.240;8.798;2023-02-28T04:19:45;8.90;;;5.77;;
31764;SDS011;18338;53.240;8.798;2023-02-28T04:22:12;6.33;;;5.33;;
31764;SDS011;18338;53.240;8.798;2023-02-28T04:24:39;9.00;;;5.57;;
31764;SDS011;18338;53.240;8.798;2023-02-28T04:27:08;10.33;;;6.17;;
31764;SDS011;18338;53.240;8.798;2023-02-28T04:29:36;9.33;;;5.70;;
31764;SDS011;18338;53.240;8.798;2023-02-28T04:32:03;8.93;;;5.97;;
31764;SDS011;18338;53.240;8.798;2023-02-28T04:34:31;9.93;;;5.77;;
31764;SDS011;18338;53.240;8.798;2023-02-28T04:36:59;10.67;;;5.53;;
31764;SDS011;18338;53.240;8.798;2023-02-28T04:39:42;10.40;;;6.27;;
31764;SDS011;18338;53.240;8.798;2023-02-28T04:42:10;9.10;;;6.07;;
31764;SDS011;18338;53.240;8.798;2023-02-28T04:44:38;8.77;;;5.83;;
31764;SDS011;18338;53.240;8.798;2023-02-28T04:47:05;7.87;;;5.40;;
31764;SDS011;18338;53.240;8.798;2023-02-28T04:49:32;10.67;;;5.90;;
31764;SDS011;18338;53.240;8.798;2023-02-28T04:51:59;7.63;;;5.73;;
31764;SDS011;18338;53.240;8.798;2023-02-28T04:54:26;8.70;;;5.40;;
31764;SDS011;18338;53.240;8.798;2023-02-28T04:56:54;7.37;;;5.60;;
31764;SDS011;18338;53.240;8.798;2023-02-28T04:59:22;8.00;;;5.77;;
31764;SDS011;18338;53.240;8.798;2023-02-28T05:01:49;8.73;;;5.60;;
31764;SDS011;18338;53.240;8.798;2023-02-28T05:04:16;8.13;;;5.23;;
31764;SDS011;18338;53.240;8.798;2023-02-28T05:06:43;8.70;;;5.30;;
31764;SDS011;18338;53.240;8.798;2023-02-28T05:09:11;8.97;;;5.17;;
31764;SDS011;18338;53.240;8.798;2023-02-28T05:11:44;8.03;;;4.57;;
31764;SDS011;18338;53.240;8.798;2023-02-28T05:14:23;6.97;;;4.70;;
31764;SDS011;18338;53.240;8.798;2023-02-28T05:17:04;7.60;;;5.10;;
31764;SDS011;18338;53.240;8.798;2023-02-28T05:19:32;6.20;;;4.80;;
31764;SDS011;18338;53.240;8.798;2023-02-28T05:21:59;6.30;;;4.67;;
31764;SDS011;18338;53.240;8.798;2023-02-28T05:24:26;6.27;;;4.87;;
31764;SDS011;18338;53.240;8.798;2023-02-28T05:26:54;7.47;;;5.03;;
31764;SDS011;18338;53.240;8.798;2023-02-28T05:29:21;5.80;;;4.57;;
31764;SDS011;18338;53.240;8.798;2023-02-28T05:31:48;7.27;;;4.67;;
31764;SDS011;18338;53.240;8.798;2023-02-28T05:34:15;7.97;;;5.50;;
31764;SDS011;18338;53.240;8.798;2023-02-28T05:36:42;8.97;;;5.40;;
31764;SDS011;18338;53.240;8.798;2023-02-28T05:39:10;8.97;;;5.20;;
31764;SDS011;18338;53.240;8.798;2023-02-28T05:41:40;7.67;;;5.43;;
31764;SDS011;18338;53.240;8.798;2023-02-28T05:44:08;8.40;;;5.37;;
31764;SDS011;18338;53.240;8.798;2023-02-28T05:46:35;7.43;;;4.97;;
31764;SDS011;18338;53.240;8.798;2023-02-28T05:49:02;9.03;;;5.37;;
31764;SDS011;18338;53.240;8.798;2023-02-28T05:51:29;8.73;;;5.67;;
31764;SDS011;18338;53.240;8.798;2023-02-28T05:54:00;9.67;;;5.47;;
31764;SDS011;18338;53.240;8.798;2023-02-28T05:56:28;8.20;;;5.53;;
31764;SDS011;18338;53.240;8.798;2023-02-28T05:58:55;9.20;;;5.43;;
31764;SDS011;18338;53.240;8.798;2023-02-28T06:01:38;5.90;;;4.43;;
31764;SDS011;18338;53.240;8.798;2023-02-28T06:04:08;7.43;;;3.50;;
31764;SDS011;18338;53.240;8.798;2023-02-28T06:06:47;4.73;;;3.63;;
31764;SDS011;18338;53.240;8.798;2023-02-28T06:09:15;6.83;;;4.73;;
31764;SDS011;18338;53.240;8.798;2023-02-28T06:11:42;7.67;;;5.00;;
31764;SDS011;18338;53.240;8.798;2023-02-28T06:14:14;6.13;;;5.10;;
31764;SDS011;18338;53.240;8.798;2023-02-28T06:16:43;6.43;;;4.70;;
31764;SDS011;18338;53.240;8.798;2023-02-28T06:19:10;5.77;;;5.07;;
31764;SDS011;18338;53.240;8.798;2023-02-28T06:21:37;6.40;;;4.77;;
31764;SDS011;18338;53.240;8.798;2023-02-28T06:24:04;5.97;;;5.37;;
31764;SDS011;18338;53.240;8.798;2023-02-28T06:26:31;8.90;;;5.80;;
31764;SDS011;18338;53.240;8.798;2023-02-28T06:32:19;7.30;;;5.90;;
31764;SDS011;18338;53.240;8.798;2023-02-28T06:34:47;10.47;;;5.97;;
31764;SDS011;18338;53.240;8.798;2023-02-28T06:37:14;10.03;;;7.33;;
31764;SDS011;18338;53.240;8.798;2023-02-28T06:39:41;8.70;;;6.57;;
31764;SDS011;18338;53.240;8.798;2023-02-28T06:42:08;10.80;;;7.13;;
31764;SDS011;18338;53.240;8.798;2023-02-28T06:44:35;9.33;;;6.90;;
31764;SDS011;18338;53.240;8.798;2023-02-28T06:47:03;8.73;;;6.73;;
31764;SDS011;18338;53.240;8.798;2023-02-28T06:49:34;8.23;;;6.63;;
31764;SDS011;18338;53.240;8.798;2023-02-28T06:52:03;8.27;;;6.07;;
31764;SDS011;18338;53.240;8.798;2023-02-28T06:54:32;10.70;;;6.87;;
31764;SDS011;18338;53.240;8.798;2023-02-28T06:57:00;9.83;;;6.87;;
31764;SDS011;18338;53.240;8.798;2023-02-28T06:59:27;12.73;;;7.13;;
31764;SDS011;18338;53.240;8.798;2023-02-28T07:01:54;9.70;;;6.77;;
31764;SDS011;18338;53.240;8.798;2023-02-28T07:04:22;10.33;;;6.57;;
31764;SDS011;18338;53.240;8.798;2023-02-28T07:06:50;9.70;;;6.87;;
31764;SDS011;18338;53.240;8.798;2023-02-28T07:09:16;9.13;;;6.90;;
31764;SDS011;18338;53.240;8.798;2023-02-28T07:11:46;10.50;;;6.90;;
31764;SDS011;18338;53.240;8.798;2023-02-28T07:14:13;9.40;;;6.53;;
31764;SDS011;18338;53.240;8.798;2023-02-28T07:16:40;10.73;;;7.00;;
31764;SDS011;18338;53.240;8.798;2023-02-28T07:19:11;9.03;;;6.67;;
31764;SDS011;18338;53.240;8.798;2023-02-28T07:21:38;9.50;;;6.77;;
31764;SDS011;18338;53.240;8.798;2023-02-28T07:24:06;8.67;;;6.30;;
31764;SDS011;18338;53.240;8.798;2023-02-28T07:26:33;8.67;;;6.33;;
31764;SDS011;18338;53.240;8.798;2023-02-28T07:29:01;11.13;;;6.53;;
31764;SDS011;18338;53.240;8.798;2023-02-28T07:31:29;11.40;;;6.33;;
31764;SDS011;18338;53.240;8.798;2023-02-28T07:33:57;7.07;;;6.07;;
31764;SDS011;18338;53.240;8.798;2023-02-28T07:36:24;9.43;;;6.93;;
31764;SDS011;18338;53.240;8.798;2023-02-28T07:38:53;9.23;;;7.10;;
31764;SDS011;18338;53.240;8.798;2023-02-28T07:41:21;9.60;;;5.93;;
31764;SDS011;18338;53.240;8.798;2023-02-28T07:43:52;9.40;;;6.00;;
31764;SDS011;18338;53.240;8.798;2023-02-28T07:46:21;9.53;;;6.13;;
31764;SDS011;18338;53.240;8.798;2023-02-28T07:48:49;6.37;;;4.90;;
31764;SDS011;18338;53.240;8.798;2023-02-28T07:51:16;7.50;;;4.87;;
31764;SDS011;18338;53.240;8.798;2023-02-28T07:53:46;7.40;;;4.27;;
31764;SDS011;18338;53.240;8.798;2023-02-28T08:00:12;4.43;;;3.77;;
31764;SDS011;18338;53.240;8.798;2023-02-28T08:02:59;5.03;;;3.30;;
31764;SDS011;18338;53.240;8.798;2023-02-28T08:05:26;6.13;;;3.73;;
31764;SDS011;18338;53.240;8.798;2023-02-28T08:07:58;5.27;;;3.20;;
31764;SDS011;18338;53.240;8.798;2023-02-28T08:15:31;7.20;;;2.80;;
31764;SDS011;18338;53.240;8.798;2023-02-28T08:17:58;4.27;;;2.87;;
31764;SDS011;18338;53.240;8.798;2023-02-28T08:20:25;3.20;;;2.47;;
31764;SDS011;18338;53.240;8.798;2023-02-28T08:22:53;5.43;;;2.27;;
31764;SDS011;18338;53.240;8.798;2023-02-28T08:25:20;3.23;;;2.50;;
31764;SDS011;18338;53.240;8.798;2023-02-28T08:27:47;3.23;;;2.30;;
31764;SDS011;18338;53.240;8.798;2023-02-28T08:30:18;5.17;;;2.70;;
31764;SDS011;18338;53.240;8.798;2023-02-28T08:32:45;2.53;;;2.03;;
31764;SDS011;18338;53.240;8.798;2023-02-28T08:35:12;6.43;;;2.60;;
31764;SDS011;18338;53.240;8.798;2023-02-28T08:37:42;4.73;;;2.00;;
31764;SDS011;18338;53.240;8.798;2023-02-28T08:40:09;3.00;;;1.70;;
31764;SDS011;18338;53.240;8.798;2023-02-28T08:42:36;2.80;;;1.77;;
31764;SDS011;18338;53.240;8.798;2023-02-28T08:45:03;2.40;;;1.67;;
31764;SDS011;18338;53.240;8.798;2023-02-28T08:47:30;5.37;;;2.50;;
31764;SDS011;18338;53.240;8.798;2023-02-28T08:49:57;4.97;;;1.90;;
31764;SDS011;18338;53.240;8.798;2023-02-28T08:52:23;3.57;;;1.70;;
31764;SDS011;18338;53.240;8.798;2023-02-28T08:54:50;3.87;;;1.90;;
31764;SDS011;18338;53.240;8.798;2023-02-28T08:57:17;3.13;;;1.60;;
31764;SDS011;18338;53.240;8.798;2023-02-28T08:59:44;4.73;;;1.43;;
31764;SDS011;18338;53.240;8.798;2023-02-28T09:02:12;2.33;;;1.10;;
31764;SDS011;18338;53.240;8.798;2023-02-28T09:04:40;3.28;;;1.40;;
31764;SDS011;18338;53.240;8.798;2023-02-28T09:07:08;2.42;;;0.90;;
31764;SDS011;18338;53.240;8.798;2023-02-28T09:09:35;1.77;;;0.80;;
31764;SDS011;18338;53.240;8.798;2023-02-28T09:12:02;2.05;;;0.82;;
31764;SDS011;18338;53.240;8.798;2023-02-28T09:14:30;2.97;;;1.30;;
31764;SDS011;18338;53.240;8.798;2023-02-28T09:16:57;3.85;;;0.98;;
31764;SDS011;18338;53.240;8.798;2023-02-28T09:19:24;1.20;;;1.10;;
31764;SDS011;18338;53.240;8.798;2023-02-28T09:21:51;1.83;;;0.82;;
31764;SDS011;18338;53.240;8.798;2023-02-28T09:24:19;3.38;;;1.30;;
31764;SDS011;18338;53.240;8.798;2023-02-28T09:26:46;2.17;;;1.10;;
31764;SDS011;18338;53.240;8.798;2023-02-28T09:29:30;4.68;;;1.30;;
31764;SDS011;18338;53.240;8.798;2023-02-28T09:31:57;1.85;;;0.82;;
31764;SDS011;18338;53.240;8.798;2023-02-28T09:34:25;1.67;;;1.20;;
31764;SDS011;18338;53.240;8.798;2023-02-28T09:36:53;4.40;;;1.77;;
31764;SDS011;18338;53.240;8.798;2023-02-28T09:39:21;4.63;;;1.30;;
31764;SDS011;18338;53.240;8.798;2023-02-28T09:41:49;2.70;;;1.00;;
31764;SDS011;18338;53.240;8.798;2023-02-28T09:44:37;4.75;;;1.30;;
31764;SDS011;18338;53.240;8.798;2023-02-28T09:47:44;1.35;;;0.70;;
31764;SDS011;18338;53.240;8.798;2023-02-28T09:52:53;3.25;;;1.60;;
31764;SDS011;18338;53.240;8.798;2023-02-28T09:55:27;2.53;;;0.82;;
31764;SDS011;18338;53.240;8.798;2023-02-28T09:58:32;0.93;;;0.50;;
31764;SDS011;18338;53.240;8.798;2023-02-28T10:01:23;2.72;;;1.00;;
31764;SDS011;18338;53.240;8.798;2023-02-28T10:07:00;0.90;;;0.60;;
31764;SDS011;18338;53.240;8.798;2023-02-28T10:09:32;1.08;;;0.77;;
31764;SDS011;18338;53.240;8.798;2023-02-28T10:12:03;1.30;;;0.70;;
31764;SDS011;18338;53.240;8.798;2023-02-28T10:14:32;1.45;;;0.65;;
31764;SDS011;18338;53.240;8.798;2023-02-28T10:22:34;2.50;;;0.90;;
31764;SDS011;18338;53.240;8.798;2023-02-28T10:25:28;1.27;;;0.73;;
31764;SDS011;18338;53.240;8.798;2023-02-28T10:28:00;1.58;;;0.70;;
31764;SDS011;18338;53.240;8.798;2023-02-28T10:30:36;1.38;;;0.90;;
31764;SDS011;18338;53.240;8.798;2023-02-28T10:33:08;0.90;;;0.75;;
31764;SDS011;18338;53.240;8.798;2023-02-28T10:35:45;2.22;;;1.00;;
31764;SDS011;18338;53.240;8.798;2023-02-28T10:38:16;1.67;;;0.90;;
31764;SDS011;18338;53.240;8.798;2023-02-28T10:41:07;3.05;;;1.08;;
31764;SDS011;18338;53.240;8.798;2023-02-28T10:43:36;2.42;;;1.08;;
31764;SDS011;18338;53.240;8.798;2023-02-28T10:54:34;2.15;;;1.40;;
31764;SDS011;18338;53.240;8.798;2023-02-28T10:57:15;3.67;;;1.73;;
31764;SDS011;18338;53.240;8.798;2023-02-28T10:59:43;4.45;;;1.40;;
31764;SDS011;18338;53.240;8.798;2023-02-28T11:02:32;2.38;;;1.27;;
31764;SDS011;18338;53.240;8.798;2023-02-28T11:04:59;1.88;;;1.33;;
31764;SDS011;18338;53.240;8.798;2023-02-28T11:07:27;1.98;;;1.38;;
31764;SDS011;18338;53.240;8.798;2023-02-28T11:10:16;3.67;;;1.50;;
31764;SDS011;18338;53.240;8.798;2023-02-28T11:12:54;3.50;;;1.42;;
31764;SDS011;18338;53.240;8.798;2023-02-28T11:15:27;1.60;;;1.10;;
31764;SDS011;18338;53.240;8.798;2023-02-28T11:21:00;2.42;;;1.65;;
31764;SDS011;18338;53.240;8.798;2023-02-28T11:23:30;2.22;;;1.30;;
31764;SDS011;18338;53.240;8.798;2023-02-28T11:26:03;3.33;;;1.40;;
31764;SDS011;18338;53.240;8.798;2023-02-28T11:28:33;1.65;;;1.50;;
31764;SDS011;18338;53.240;8.798;2023-02-28T11:33:53;3.33;;;1.20;;
31764;SDS011;18338;53.240;8.798;2023-02-28T11:36:23;1.73;;;1.33;;
31764;SDS011;18338;53.240;8.798;2023-02-28T11:38:53;2.08;;;1.60;;
31764;SDS011;18338;53.240;8.798;2023-02-28T11:47:41;1.85;;;1.50;;
31764;SDS011;18338;53.240;8.798;2023-02-28T11:56:16;2.33;;;1.40;;
31764;SDS011;18338;53.240;8.798;2023-02-28T11:58:47;1.88;;;1.17;;
31764;SDS011;18338;53.240;8.798;2023-02-28T12:08:27;2.88;;;1.50;;
31764;SDS011;18338;53.240;8.798;2023-02-28T12:11:40;1.52;;;1.35;;
31764;SDS011;18338;53.240;8.798;2023-02-28T12:22:29;2.70;;;1.45;;
31764;SDS011;18338;53.240;8.798;2023-02-28T12:25:24;2.92;;;1.38;;
31764;SDS011;18338;53.240;8.798;2023-02-28T12:28:08;1.52;;;1.00;;
31764;SDS011;18338;53.240;8.798;2023-02-28T12:30:38;2.05;;;1.35;;
31764;SDS011;18338;53.240;8.798;2023-02-28T12:33:13;2.45;;;1.60;;
31764;SDS011;18338;53.240;8.798;2023-02-28T12:35:47;1.65;;;1.30;;
31764;SDS011;18338;53.240;8.798;2023-02-28T12:38:22;3.35;;;1.30;;
31764;SDS011;18338;53.240;8.798;2023-02-28T12:40:52;2.75;;;1.20;;
31764;SDS011;18338;53.240;8.798;2023-02-28T12:43:33;1.45;;;0.95;;
31764;SDS011;18338;53.240;8.798;2023-02-28T12:46:11;1.90;;;1.17;;
31764;SDS011;18338;53.240;8.798;2023-02-28T12:49:06;1.92;;;1.20;;
31764;SDS011;18338;53.240;8.798;2023-02-28T12:51:38;1.25;;;0.95;;
31764;SDS011;18338;53.240;8.798;2023-02-28T12:57:06;8.27;;;6.43;;
31764;SDS011;18338;53.240;8.798;2023-02-28T12:59:41;3.33;;;2.67;;
31764;SDS011;18338;53.240;8.798;2023-02-28T13:10:46;1.25;;;0.88;;
31764;SDS011;18338;53.240;8.798;2023-02-28T13:13:25;1.60;;;1.23;;
31764;SDS011;18338;53.240;8.798;2023-02-28T13:18:36;1.25;;;0.90;;
31764;SDS011;18338;53.240;8.798;2023-02-28T13:21:07;2.58;;;1.35;;
31764;SDS011;18338;53.240;8.798;2023-02-28T13:34:32;3.63;;;1.45;;
31764;SDS011;18338;53.240;8.798;2023-02-28T13:42:32;4.53;;;1.65;;
31764;SDS011;18338;53.240;8.798;2023-02-28T13:47:34;2.17;;;0.82;;
31764;SDS011;18338;53.240;8.798;2023-02-28T14:07:00;1.20;;;0.95;;
31764;SDS011;18338;53.240;8.798;2023-02-28T14:09:29;1.40;;;1.15;;
31764;SDS011;18338;53.240;8.798;2023-02-28T14:17:55;1.77;;;1.15;;
31764;SDS011;18338;53.240;8.798;2023-02-28T14:20:23;2.50;;;1.10;;
31764;SDS011;18338;53.240;8.798;2023-02-28T14:22:56;1.77;;;1.17;;
31764;SDS011;18338;53.240;8.798;2023-02-28T14:25:36;1.00;;;0.90;;
31764;SDS011;18338;53.240;8.798;2023-02-28T14:36:43;1.48;;;1.08;;
31764;SDS011;18338;53.240;8.798;2023-02-28T14:39:22;2.55;;;1.30;;
31764;SDS011;18338;53.240;8.798;2023-02-28T14:41:51;2.88;;;1.17;;
31764;SDS011;18338;53.240;8.798;2023-02-28T14:44:22;2.47;;;1.00;;
31764;SDS011;18338;53.240;8.798;2023-02-28T14:46:59;1.02;;;0.93;;
31764;SDS011;18338;53.240;8.798;2023-02-28T14:49:31;1.90;;;1.20;;
31764;SDS011;18338;53.240;8.798;2023-02-28T14:54:43;1.98;;;1.30;;
31764;SDS011;18338;53.240;8.798;2023-02-28T14:57:20;1.38;;;1.20;;
31764;SDS011;18338;53.240;8.798;2023-02-28T15:02:40;1.85;;;1.30;;
31764;SDS011;18338;53.240;8.798;2023-02-28T15:07:43;2.03;;;0.90;;
31764;SDS011;18338;53.240;8.798;2023-02-28T15:12:49;1.20;;;1.10;;
31764;SDS011;18338;53.240;8.798;2023-02-28T15:15:19;1.63;;;1.00;;
31764;SDS011;18338;53.240;8.798;2023-02-28T15:18:02;1.80;;;1.13;;
31764;SDS011;18338;53.240;8.798;2023-02-28T15:20:31;1.52;;;1.08;;
31764;SDS011;18338;53.240;8.798;2023-02-28T15:22:59;1.75;;;1.08;;
31764;SDS011;18338;53.240;8.798;2023-02-28T15:25:26;2.58;;;1.10;;
31764;SDS011;18338;53.240;8.798;2023-02-28T15:27:54;2.30;;;1.27;;
31764;SDS011;18338;53.240;8.798;2023-02-28T15:30:31;1.27;;;1.10;;
31764;SDS011;18338;53.240;8.798;2023-02-28T15:33:03;2.78;;;1.20;;
31764;SDS011;18338;53.240;8.798;2023-02-28T15:35:44;1.88;;;1.30;;
31764;SDS011;18338;53.240;8.798;2023-02-28T15:38:13;1.75;;;1.20;;
31764;SDS011;18338;53.240;8.798;2023-02-28T15:40:42;2.25;;;1.33;;
31764;SDS011;18338;53.240;8.798;2023-02-28T15:43:18;1.92;;;0.90;;
31764;SDS011;18338;53.240;8.798;2023-02-28T15:45:50;1.40;;;1.30;;
31764;SDS011;18338;53.240;8.798;2023-02-28T15:48:47;1.60;;;1.30;;
31764;SDS011;18338;53.240;8.798;2023-02-28T15:51:22;2.08;;;1.48;;
31764;SDS011;18338;53.240;8.798;2023-02-28T15:54:04;2.58;;;1.48;;
31764;SDS011;18338;53.240;8.798;2023-02-28T15:56:35;1.92;;;1.40;;
31764;SDS011;18338;53.240;8.798;2023-02-28T15:59:13;1.33;;;1.10;;
31764;SDS011;18338;53.240;8.798;2023-02-28T16:01:44;2.17;;;1.30;;
31764;SDS011;18338;53.240;8.798;2023-02-28T16:04:14;2.88;;;1.33;;
31764;SDS011;18338;53.240;8.798;2023-02-28T16:06:46;2.28;;;1.20;;
31764;SDS011;18338;53.240;8.798;2023-02-28T16:09:25;2.75;;;1.15;;
31764;SDS011;18338;53.240;8.798;2023-02-28T16:11:55;3.33;;;1.20;;
31764;SDS011;18338;53.240;8.798;2023-02-28T16:14:25;1.38;;;1.25;;
31764;SDS011;18338;53.240;8.798;2023-02-28T16:16:55;2.95;;;1.27;;
31764;SDS011;18338;53.240;8.798;2023-02-28T16:19:28;1.70;;;1.35;;
31764;SDS011;18338;53.240;8.798;2023-02-28T16:21:57;2.13;;;1.50;;
31764;SDS011;18338;53.240;8.798;2023-02-28T16:24:24;4.32;;;1.80;;
31764;SDS011;18338;53.240;8.798;2023-02-28T16:26:51;2.92;;;1.60;;
31764;SDS011;18338;53.240;8.798;2023-02-28T16:29:24;2.38;;;1.65;;
31764;SDS011;18338;53.240;8.798;2023-02-28T16:31:56;3.47;;;1.58;;
31764;SDS011;18338;53.240;8.798;2023-02-28T16:34:23;2.40;;;1.83;;
31764;SDS011;18338;53.240;8.798;2023-02-28T16:36:50;2.67;;;1.83;;
31764;SDS011;18338;53.240;8.798;2023-02-28T16:39:17;4.70;;;1.75;;
31764;SDS011;18338;53.240;8.798;2023-02-28T16:41:47;2.85;;;1.63;;
31764;SDS011;18338;53.240;8.798;2023-02-28T16:44:27;2.63;;;1.77;;
31764;SDS011;18338;53.240;8.798;2023-02-28T16:47:17;2.33;;;1.65;;
31764;SDS011;18338;53.240;8.798;2023-02-28T16:49:44;2.63;;;1.70;;
31764;SDS011;18338;53.240;8.798;2023-02-28T16:52:11;2.00;;;1.63;;
31764;SDS011;18338;53.240;8.798;2023-02-28T16:54:38;4.57;;;2.28;;
31764;SDS011;18338;53.240;8.798;2023-02-28T16:57:11;3.15;;;1.92;;
31764;SDS011;18338;53.240;8.798;2023-02-28T16:59:47;4.22;;;2.55;;
31764;SDS011;18338;53.240;8.798;2023-02-28T17:02:17;3.30;;;2.08;;
31764;SDS011;18338;53.240;8.798;2023-02-28T17:04:48;5.75;;;2.80;;
31764;SDS011;18338;53.240;8.798;2023-02-28T17:07:16;4.10;;;2.47;;
31764;SDS011;18338;53.240;8.798;2023-02-28T17:09:44;5.15;;;2.92;;
31764;SDS011;18338;53.240;8.798;2023-02-28T17:12:12;3.17;;;2.40;;
31764;SDS011;18338;53.240;8.798;2023-02-28T17:14:38;3.38;;;2.30;;
31764;SDS011;18338;53.240;8.798;2023-02-28T17:17:06;3.50;;;2.10;;
31764;SDS011;18338;53.240;8.798;2023-02-28T17:19:33;2.90;;;2.03;;
31764;SDS011;18338;53.240;8.798;2023-02-28T17:22:02;3.73;;;1.90;;
31764;SDS011;18338;53.240;8.798;2023-02-28T17:24:29;2.93;;;2.03;;
31764;SDS011;18338;53.240;8.798;2023-02-28T17:26:56;3.60;;;2.47;;
31764;SDS011;18338;53.240;8.798;2023-02-28T17:29:24;3.03;;;2.30;;
31764;SDS011;18338;53.240;8.798;2023-02-28T17:31:51;3.60;;;2.27;;
31764;SDS011;18338;53.240;8.798;2023-02-28T17:34:18;3.27;;;2.00;;
31764;SDS011;18338;53.240;8.798;2023-02-28T17:36:46;2.97;;;1.90;;
31764;SDS011;18338;53.240;8.798;2023-02-28T17:39:14;3.77;;;2.20;;
31764;SDS011;18338;53.240;8.798;2023-02-28T17:41:53;3.70;;;2.17;;
31764;SDS011;18338;53.240;8.798;2023-02-28T17:44:21;2.47;;;1.90;;
31764;SDS011;18338;53.240;8.798;2023-02-28T17:46:50;2.30;;;2.00;;
31764;SDS011;18338;53.240;8.798;2023-02-28T17:49:18;2.93;;;2.00;;
31764;SDS011;18338;53.240;8.798;2023-02-28T17:51:46;2.50;;;1.90;;
31764;SDS011;18338;53.240;8.798;2023-02-28T17:54:14;3.23;;;1.87;;
31764;SDS011;18338;53.240;8.798;2023-02-28T17:56:43;4.90;;;3.27;;
31764;SDS011;18338;53.240;8.798;2023-02-28T17:59:10;5.23;;;2.57;;
31764;SDS011;18338;53.240;8.798;2023-02-28T18:01:38;4.40;;;2.37;;